createdAt,value
2022-12-31T00:01:12.667Z,11.00
2022-12-31T00:03:39.828Z,11.00
2022-12-31T00:06:23.849Z,11.10
2022-12-31T00:08:51.738Z,11.00
2022-12-31T00:11:18.982Z,11.00
2022-12-31T00:13:49.334Z,11.00
2022-12-31T00:16:17.789Z,11.00
2022-12-31T00:18:50.656Z,11.00
2022-12-31T00:21:18.343Z,11.00
2022-12-31T00:23:45.638Z,11.10
2022-12-31T00:26:14.168Z,11.10
2022-12-31T00:28:41.677Z,11.10
2022-12-31T00:31:10.247Z,11.10
2022-12-31T00:33:37.403Z,11.10
2022-12-31T00:36:24.347Z,11.20
2022-12-31T00:38:52.522Z,11.30
2022-12-31T00:41:20.318Z,11.20
2022-12-31T00:43:47.828Z,11.20
2022-12-31T00:46:15.336Z,11.10
2022-12-31T00:48:43.170Z,11.10
2022-12-31T00:51:11.903Z,11.20
2022-12-31T00:53:39.442Z,11.20
2022-12-31T00:56:07.760Z,11.10
2022-12-31T00:58:35.127Z,11.10
2022-12-31T01:01:31.519Z,11.20
2022-12-31T01:04:03.818Z,11.10
2022-12-31T01:06:31.394Z,11.10
2022-12-31T01:08:58.553Z,11.20
2022-12-31T01:11:29.342Z,11.10
2022-12-31T01:13:58.464Z,11.20
2022-12-31T01:16:30.043Z,11.10
2022-12-31T01:18:58.806Z,11.10
2022-12-31T01:21:27.351Z,11.10
2022-12-31T01:23:54.459Z,10.80
2022-12-31T01:26:22.012Z,11.10
2022-12-31T01:28:49.212Z,11.10
2022-12-31T01:31:17.396Z,11.00
2022-12-31T01:33:44.876Z,11.00
2022-12-31T01:36:25.995Z,11.00
2022-12-31T01:38:58.297Z,11.00
2022-12-31T01:41:27.048Z,11.00
2022-12-31T01:43:59.944Z,10.70
2022-12-31T01:46:38.761Z,11.00
2022-12-31T01:49:15.165Z,11.00
2022-12-31T01:51:43.666Z,11.70
2022-12-31T01:54:13.167Z,11.00
2022-12-31T01:56:42.279Z,11.00
2022-12-31T01:59:10.684Z,11.00
2022-12-31T02:01:38.898Z,10.90
2022-12-31T02:04:07.819Z,10.90
2022-12-31T02:06:50.273Z,10.90
2022-12-31T02:09:17.678Z,10.90
2022-12-31T02:11:44.858Z,10.90
2022-12-31T02:14:15.094Z,10.90
2022-12-31T02:16:42.171Z,11.70
2022-12-31T02:19:30.055Z,10.90
2022-12-31T02:22:02.842Z,10.90
2022-12-31T02:24:50.414Z,10.80
2022-12-31T02:27:17.448Z,10.80
2022-12-31T02:30:04.360Z,10.80
2022-12-31T02:32:43.705Z,10.80
2022-12-31T02:35:16.510Z,10.60
2022-12-31T02:37:44.763Z,10.90
2022-12-31T02:40:14.434Z,10.90
2022-12-31T02:42:41.553Z,10.90
2022-12-31T02:45:11.167Z,10.90
2022-12-31T02:47:50.606Z,10.90
2022-12-31T02:50:29.901Z,10.90
2022-12-31T02:53:14.598Z,10.90
2022-12-31T02:55:50.722Z,10.90
2022-12-31T02:58:17.839Z,10.90
2022-12-31T03:01:17.361Z,10.20
2022-12-31T03:03:44.569Z,11.00
2022-12-31T03:06:12.385Z,11.00
2022-12-31T03:09:02.206Z,11.00
2022-12-31T03:11:48.063Z,11.00
2022-12-31T03:14:15.343Z,11.00
2022-12-31T03:16:42.835Z,11.00
2022-12-31T03:19:28.708Z,11.00
2022-12-31T03:22:14.635Z,11.00
2022-12-31T03:25:00.524Z,10.40
2022-12-31T03:27:27.645Z,11.70
2022-12-31T03:29:55.215Z,11.10
2022-12-31T03:32:22.357Z,11.10
2022-12-31T03:34:49.533Z,11.10
2022-12-31T03:37:16.635Z,11.10
2022-12-31T03:39:44.716Z,11.10
2022-12-31T03:42:11.869Z,11.10
2022-12-31T03:44:38.980Z,10.70
2022-12-31T03:47:06.065Z,11.10
2022-12-31T03:49:33.283Z,11.20
2022-12-31T03:52:00.455Z,11.10
2022-12-31T03:54:27.546Z,11.20
2022-12-31T03:56:59.890Z,11.10
2022-12-31T03:59:27.461Z,11.10
2022-12-31T04:01:54.773Z,11.10
2022-12-31T04:04:22.033Z,11.10
2022-12-31T04:06:50.027Z,11.50
2022-12-31T04:09:17.113Z,11.10
2022-12-31T04:11:44.191Z,11.10
2022-12-31T04:14:11.993Z,11.10
2022-12-31T04:16:39.170Z,11.80
2022-12-31T04:19:06.354Z,11.10
2022-12-31T04:21:35.195Z,11.10
2022-12-31T04:24:02.732Z,11.10
2022-12-31T04:26:30.116Z,11.10
2022-12-31T04:28:57.225Z,11.10
2022-12-31T04:31:24.507Z,11.10
2022-12-31T04:33:51.769Z,11.20
2022-12-31T04:36:18.872Z,11.20
2022-12-31T04:38:45.973Z,11.20
2022-12-31T04:41:19.193Z,11.30
2022-12-31T04:43:53.684Z,12.00
2022-12-31T04:46:22.378Z,11.40
2022-12-31T04:48:49.500Z,11.40
2022-12-31T04:51:16.657Z,11.40
2022-12-31T04:53:43.855Z,11.50
2022-12-31T04:56:11.051Z,11.60
2022-12-31T04:58:38.967Z,11.50
2022-12-31T05:01:07.576Z,11.60
2022-12-31T05:03:35.826Z,11.70
2022-12-31T05:06:22.974Z,11.80
2022-12-31T05:08:50.124Z,11.80
2022-12-31T05:11:17.762Z,11.80
2022-12-31T05:13:44.909Z,11.90
2022-12-31T05:16:12.093Z,11.90
2022-12-31T05:18:39.287Z,11.90
2022-12-31T05:21:06.451Z,12.00
2022-12-31T05:23:34.160Z,12.00
2022-12-31T05:26:01.970Z,11.70
2022-12-31T05:28:29.107Z,12.10
2022-12-31T05:30:56.372Z,12.10
2022-12-31T05:33:23.589Z,12.10
2022-12-31T05:35:50.710Z,12.10
2022-12-31T05:38:18.078Z,12.10
2022-12-31T05:40:45.355Z,12.20
2022-12-31T05:43:12.470Z,12.20
2022-12-31T05:45:39.574Z,12.20
2022-12-31T05:48:06.680Z,12.20
2022-12-31T05:50:33.779Z,12.30
2022-12-31T05:53:01.852Z,12.30
2022-12-31T05:55:29.182Z,12.30
2022-12-31T05:57:56.311Z,12.30
2022-12-31T06:00:23.644Z,11.40
2022-12-31T06:02:50.943Z,12.40
2022-12-31T06:05:24.161Z,12.40
2022-12-31T06:07:53.163Z,12.50
2022-12-31T06:10:20.286Z,12.50
2022-12-31T06:12:47.369Z,12.60
2022-12-31T06:15:14.435Z,12.50
2022-12-31T06:17:41.534Z,12.60
2022-12-31T06:20:12.886Z,12.30
2022-12-31T06:22:40.499Z,12.60
2022-12-31T06:25:07.767Z,12.60
2022-12-31T06:27:34.895Z,12.60
2022-12-31T06:30:01.991Z,12.60
2022-12-31T06:32:29.095Z,12.70
2022-12-31T06:34:56.185Z,12.70
2022-12-31T06:37:24.837Z,12.70
2022-12-31T06:39:51.913Z,12.80
2022-12-31T06:42:19.090Z,12.80
2022-12-31T06:44:46.244Z,12.80
2022-12-31T06:47:13.319Z,12.80
2022-12-31T06:49:40.932Z,12.90
2022-12-31T06:52:08.420Z,12.90
2022-12-31T06:54:35.616Z,12.90
2022-12-31T06:57:02.912Z,12.90
2022-12-31T06:59:30.134Z,12.90
2022-12-31T07:02:16.266Z,12.20
2022-12-31T07:05:02.446Z,12.90
2022-12-31T07:07:33.034Z,12.10
2022-12-31T07:10:22.723Z,13.00
2022-12-31T07:12:52.745Z,13.00
2022-12-31T07:15:38.598Z,13.00
2022-12-31T07:18:26.588Z,13.00
2022-12-31T07:20:53.990Z,11.40
2022-12-31T07:23:21.538Z,12.90
2022-12-31T07:25:55.402Z,12.80
2022-12-31T07:28:36.415Z,12.80
2022-12-31T07:31:22.176Z,12.80
2022-12-31T07:33:59.570Z,12.80
2022-12-31T07:36:40.526Z,12.70
2022-12-31T07:39:12.935Z,12.70
2022-12-31T07:41:40.188Z,12.70
2022-12-31T07:44:11.666Z,12.70
2022-12-31T07:46:58.698Z,12.70
2022-12-31T07:49:26.534Z,12.80
2022-12-31T07:51:53.835Z,12.80
2022-12-31T07:54:22.348Z,12.90
2022-12-31T07:56:50.115Z,12.90
2022-12-31T07:59:36.000Z,12.90
2022-12-31T08:02:06.742Z,13.70
2022-12-31T08:04:41.018Z,12.90
2022-12-31T08:07:21.456Z,13.00
2022-12-31T08:09:58.308Z,13.00
2022-12-31T08:12:26.647Z,13.00
2022-12-31T08:14:53.835Z,13.00
2022-12-31T08:17:21.252Z,13.00
2022-12-31T08:19:48.898Z,13.00
2022-12-31T08:22:28.563Z,12.90
2022-12-31T08:24:58.905Z,12.90
2022-12-31T08:27:33.641Z,12.90
2022-12-31T08:30:07.391Z,12.90
2022-12-31T08:32:55.632Z,12.90
2022-12-31T08:35:28.761Z,12.90
2022-12-31T08:37:55.845Z,12.80
2022-12-31T08:40:33.909Z,12.90
2022-12-31T08:43:03.996Z,12.80
2022-12-31T08:45:46.485Z,12.80
2022-12-31T08:48:22.710Z,13.10
2022-12-31T08:50:49.971Z,12.80
2022-12-31T08:53:17.191Z,12.80
2022-12-31T08:55:45.308Z,12.80
2022-12-31T08:58:20.827Z,14.20
2022-12-31T09:00:49.880Z,12.80
2022-12-31T09:03:32.532Z,12.80
2022-12-31T09:06:14.529Z,12.80
2022-12-31T09:08:53.109Z,12.80
2022-12-31T09:11:23.196Z,14.20
2022-12-31T09:14:00.929Z,12.70
2022-12-31T09:16:34.387Z,12.70
2022-12-31T09:19:01.667Z,12.70
2022-12-31T09:21:28.881Z,12.80
2022-12-31T09:23:56.199Z,12.80
2022-12-31T09:26:29.603Z,12.80
2022-12-31T09:28:56.741Z,12.80
2022-12-31T09:31:26.914Z,12.80
2022-12-31T09:34:06.978Z,12.70
2022-12-31T09:36:41.517Z,12.80
2022-12-31T09:39:28.857Z,12.80
2022-12-31T09:42:14.596Z,12.90
2022-12-31T09:45:00.289Z,12.90
2022-12-31T09:47:30.201Z,12.80
2022-12-31T09:50:03.273Z,12.80
2022-12-31T09:52:56.514Z,12.90
2022-12-31T09:55:29.760Z,12.90
2022-12-31T09:58:15.427Z,12.90
2022-12-31T10:00:57.784Z,12.90
2022-12-31T10:03:31.213Z,12.90
2022-12-31T10:06:17.261Z,12.90
2022-12-31T10:08:44.382Z,12.90
2022-12-31T10:11:24.463Z,12.90
2022-12-31T10:13:57.627Z,12.90
2022-12-31T10:16:45.510Z,12.90
2022-12-31T10:19:12.589Z,12.90
2022-12-31T10:21:47.220Z,12.90
2022-12-31T10:24:23.515Z,12.90
2022-12-31T10:26:53.766Z,12.90
2022-12-31T10:29:39.467Z,12.90
2022-12-31T10:32:14.724Z,12.90
2022-12-31T10:35:14.773Z,12.90
2022-12-31T10:37:46.016Z,12.90
2022-12-31T10:40:33.855Z,12.90
2022-12-31T10:43:12.771Z,12.90
2022-12-31T10:45:39.855Z,12.90
2022-12-31T10:48:06.942Z,12.90
2022-12-31T10:50:39.872Z,12.90
2022-12-31T10:53:19.134Z,12.90
2022-12-31T10:55:52.402Z,12.90
2022-12-31T10:58:19.451Z,13.00
2022-12-31T11:00:52.681Z,13.00
2022-12-31T11:03:38.548Z,13.00
2022-12-31T11:06:17.760Z,12.80
2022-12-31T11:08:58.519Z,12.90
2022-12-31T11:11:43.762Z,12.90
2022-12-31T11:14:22.972Z,13.00
2022-12-31T11:16:52.928Z,13.00
2022-12-31T11:19:38.649Z,13.00
2022-12-31T11:22:08.617Z,12.90
2022-12-31T11:24:37.160Z,13.00
2022-12-31T11:27:15.979Z,13.00
2022-12-31T11:29:43.174Z,13.00
2022-12-31T11:32:25.423Z,12.90
2022-12-31T11:35:01.277Z,12.90
2022-12-31T11:37:42.520Z,12.90
2022-12-31T11:40:15.619Z,12.90
2022-12-31T11:42:48.433Z,12.90
2022-12-31T11:45:15.681Z,12.90
2022-12-31T11:50:48.254Z,12.90
2022-12-31T11:53:15.295Z,12.80
2022-12-31T11:55:48.523Z,12.80
2022-12-31T11:58:20.653Z,12.80
2022-12-31T12:00:56.781Z,12.70
2022-12-31T12:03:24.675Z,12.80
2022-12-31T12:05:51.872Z,12.80
2022-12-31T12:08:19.101Z,12.70
2022-12-31T12:10:51.061Z,12.70
2022-12-31T12:13:18.108Z,12.70
2022-12-31T12:15:47.107Z,12.70
2022-12-31T12:18:23.207Z,12.70
2022-12-31T12:20:50.377Z,12.70
2022-12-31T12:23:24.883Z,12.70
2022-12-31T12:25:52.392Z,12.70
2022-12-31T12:28:27.714Z,12.60
2022-12-31T12:30:59.408Z,12.70
2022-12-31T12:33:27.158Z,12.70
2022-12-31T12:35:54.248Z,12.70
2022-12-31T12:38:22.912Z,12.70
2022-12-31T12:41:00.593Z,12.80
2022-12-31T12:43:34.326Z,12.80
2022-12-31T12:46:04.166Z,12.80
2022-12-31T12:48:31.297Z,12.80
2022-12-31T12:50:59.317Z,13.00
2022-12-31T12:53:55.948Z,12.90
2022-12-31T12:56:41.186Z,12.90
2022-12-31T12:59:18.033Z,12.90
2022-12-31T13:01:54.174Z,12.80
2022-12-31T13:04:35.369Z,12.90
2022-12-31T13:07:02.939Z,12.80
2022-12-31T13:09:36.181Z,12.90
2022-12-31T13:12:12.247Z,12.90
2022-12-31T13:14:48.229Z,12.90
2022-12-31T13:17:18.096Z,12.80
2022-12-31T13:19:45.228Z,12.80
2022-12-31T13:22:31.184Z,12.80
2022-12-31T13:25:21.399Z,12.80
2022-12-31T13:27:50.805Z,12.70
2022-12-31T13:30:22.349Z,12.70
2022-12-31T13:33:16.397Z,12.70
2022-12-31T13:35:46.279Z,12.70
2022-12-31T13:38:31.914Z,12.70
2022-12-31T13:41:01.733Z,12.70
2022-12-31T13:43:45.778Z,12.70
2022-12-31T13:46:16.164Z,12.60
2022-12-31T13:52:44.254Z,12.60
2022-12-31T13:55:20.291Z,12.60
2022-12-31T13:57:56.748Z,12.60
2022-12-31T14:00:24.789Z,12.60
2022-12-31T14:03:06.571Z,12.50
2022-12-31T14:05:41.890Z,12.50
2022-12-31T14:08:09.936Z,12.50
2022-12-31T14:10:41.880Z,12.50
2022-12-31T14:13:17.965Z,12.50
2022-12-31T14:15:53.900Z,12.50
2022-12-31T14:18:26.745Z,12.40
2022-12-31T14:20:53.826Z,12.40
2022-12-31T14:23:23.656Z,12.40
2022-12-31T14:25:50.751Z,12.40
2022-12-31T14:28:32.993Z,12.40
2022-12-31T14:31:06.437Z,12.30
2022-12-31T14:33:52.159Z,12.40
2022-12-31T14:39:39.361Z,12.30
2022-12-31T14:42:10.116Z,12.30
2022-12-31T14:44:42.665Z,12.30
2022-12-31T14:47:24.175Z,12.30
2022-12-31T14:49:55.640Z,12.30
2022-12-31T14:52:25.194Z,13.40
2022-12-31T14:55:03.243Z,12.30
2022-12-31T14:58:09.684Z,12.20
2022-12-31T15:00:27.624Z,12.20
2022-12-31T15:03:03.097Z,12.10
2022-12-31T15:05:50.989Z,12.20
2022-12-31T15:08:26.821Z,12.60
2022-12-31T15:11:07.215Z,12.20
2022-12-31T15:13:46.067Z,12.10
2022-12-31T15:16:18.825Z,12.10
2022-12-31T15:18:55.028Z,12.00
2022-12-31T15:21:40.691Z,12.00
2022-12-31T15:24:19.093Z,12.00
2022-12-31T15:26:54.264Z,12.20
2022-12-31T15:29:33.715Z,12.00
2022-12-31T15:32:02.776Z,12.90
2022-12-31T15:34:34.864Z,11.90
2022-12-31T15:37:03.888Z,11.90
2022-12-31T15:39:30.949Z,11.90
2022-12-31T15:44:51.557Z,11.90
2022-12-31T15:47:33.807Z,11.90
2022-12-31T15:50:04.687Z,11.90
2022-12-31T15:52:48.053Z,11.90
2022-12-31T15:55:37.684Z,11.90
2022-12-31T15:58:09.755Z,11.70
2022-12-31T16:00:42.780Z,11.90
2022-12-31T16:03:19.850Z,11.80
2022-12-31T16:05:46.977Z,11.90
2022-12-31T16:08:18.416Z,11.90
2022-12-31T16:10:45.559Z,11.90
2022-12-31T16:13:20.695Z,11.90
2022-12-31T16:16:13.935Z,11.90
2022-12-31T16:18:41.760Z,12.10
2022-12-31T16:21:27.394Z,11.90
2022-12-31T16:23:55.728Z,11.90
2022-12-31T16:26:30.157Z,11.90
2022-12-31T16:29:00.540Z,11.90
2022-12-31T16:31:29.024Z,11.90
2022-12-31T16:34:06.531Z,11.90
2022-12-31T16:36:33.725Z,12.70
2022-12-31T16:39:21.439Z,11.90
2022-12-31T16:41:48.564Z,11.90
2022-12-31T16:44:28.507Z,11.80
2022-12-31T16:46:59.964Z,11.90
2022-12-31T16:49:29.080Z,11.10
2022-12-31T16:52:01.249Z,11.90
2022-12-31T16:54:34.474Z,11.90
2022-12-31T16:57:02.158Z,11.90
2022-12-31T16:59:35.956Z,11.80
2022-12-31T17:02:04.767Z,12.20
2022-12-31T17:04:32.058Z,12.60
2022-12-31T17:07:17.795Z,12.90
2022-12-31T17:09:44.943Z,11.90
2022-12-31T17:12:16.477Z,11.90
2022-12-31T17:14:48.373Z,12.00
2022-12-31T17:17:22.180Z,12.00
2022-12-31T17:19:50.754Z,12.00
2022-12-31T17:22:31.827Z,12.00
2022-12-31T17:25:03.160Z,12.00
2022-12-31T17:27:30.656Z,12.00
2022-12-31T17:30:21.094Z,12.10
2022-12-31T17:32:50.132Z,12.00
2022-12-31T17:35:30.963Z,12.00
2022-12-31T17:38:16.563Z,12.00
2022-12-31T17:40:52.276Z,11.90
2022-12-31T17:43:21.267Z,12.00
2022-12-31T17:45:50.684Z,12.70
2022-12-31T17:48:18.695Z,12.10
2022-12-31T17:50:53.033Z,12.20
2022-12-31T17:53:20.649Z,12.20
2022-12-31T17:55:49.692Z,12.20
2022-12-31T17:58:18.330Z,12.20
2022-12-31T18:00:45.473Z,12.30
2022-12-31T18:03:12.685Z,12.20
2022-12-31T18:05:39.804Z,12.30
2022-12-31T18:08:06.906Z,12.30
2022-12-31T18:10:36.408Z,12.30
2022-12-31T18:13:07.822Z,12.30
2022-12-31T18:15:34.909Z,12.30
2022-12-31T18:18:02.335Z,12.40
2022-12-31T18:20:29.814Z,12.40
2022-12-31T18:22:57.091Z,12.80
2022-12-31T18:25:24.318Z,12.30
2022-12-31T18:27:51.818Z,12.40
2022-12-31T18:30:19.020Z,12.40
2022-12-31T18:32:46.712Z,12.40
2022-12-31T18:35:48.924Z,12.40
2022-12-31T18:38:14.607Z,12.40
2022-12-31T18:40:44.445Z,12.30
2022-12-31T18:43:16.752Z,12.40
2022-12-31T18:45:44.435Z,13.40
2022-12-31T18:48:11.741Z,12.70
2022-12-31T18:50:39.455Z,12.50
2022-12-31T18:53:06.852Z,12.40
2022-12-31T18:55:45.680Z,12.50
2022-12-31T18:58:12.806Z,12.50
2022-12-31T19:00:40.051Z,12.40
2022-12-31T19:03:07.296Z,12.50
2022-12-31T19:05:37.373Z,12.50
2022-12-31T19:08:04.580Z,12.50
2022-12-31T19:10:31.759Z,13.70
2022-12-31T19:12:58.891Z,12.50
2022-12-31T19:15:32.875Z,12.50
2022-12-31T19:18:01.011Z,12.50
2022-12-31T19:20:29.156Z,12.50
2022-12-31T19:22:57.145Z,12.50
2022-12-31T19:25:25.720Z,14.00
2022-12-31T19:27:53.098Z,12.50
2022-12-31T19:30:25.012Z,12.50
2022-12-31T19:32:52.785Z,12.50
2022-12-31T19:35:20.493Z,12.50
2022-12-31T19:37:49.513Z,12.50
2022-12-31T19:40:17.912Z,12.60
2022-12-31T19:42:45.587Z,12.60
2022-12-31T19:45:16.300Z,12.50
2022-12-31T19:47:44.279Z,12.60
2022-12-31T19:50:12.619Z,12.60
2022-12-31T19:52:39.907Z,12.70
2022-12-31T19:55:07.232Z,12.90
2022-12-31T19:57:34.351Z,12.80
2022-12-31T20:00:01.845Z,12.80
2022-12-31T20:02:29.192Z,12.80
2022-12-31T20:04:56.490Z,12.80
2022-12-31T20:07:27.100Z,12.80
2022-12-31T20:09:54.515Z,12.80
2022-12-31T20:12:21.594Z,12.80
2022-12-31T20:14:48.675Z,12.80
2022-12-31T20:17:15.808Z,12.80
2022-12-31T20:19:42.878Z,12.70
2022-12-31T20:22:10.256Z,12.90
2022-12-31T20:24:37.349Z,12.80
2022-12-31T20:27:04.487Z,12.80
2022-12-31T20:29:31.624Z,12.80
2022-12-31T20:31:58.763Z,12.90
2022-12-31T20:34:25.955Z,12.90
2022-12-31T20:36:53.086Z,12.90
2022-12-31T20:39:20.167Z,12.80
2022-12-31T20:41:47.428Z,12.90
2022-12-31T20:44:14.589Z,12.80
2022-12-31T20:46:41.772Z,12.80
2022-12-31T20:49:10.214Z,12.80
2022-12-31T20:51:37.311Z,12.90
2022-12-31T20:54:05.666Z,13.10
2022-12-31T20:56:33.900Z,12.80
2022-12-31T20:59:01.701Z,12.80
2022-12-31T21:01:47.850Z,12.80
2022-12-31T21:04:16.561Z,12.80
2022-12-31T21:06:43.819Z,13.10
2022-12-31T21:09:10.957Z,12.70
2022-12-31T21:11:56.874Z,12.70
2022-12-31T21:14:23.991Z,12.70
2022-12-31T21:16:51.179Z,12.70
2022-12-31T21:19:18.428Z,12.70
2022-12-31T21:21:45.602Z,14.20
2022-12-31T21:24:12.757Z,12.70
2022-12-31T21:26:39.859Z,12.70
2022-12-31T21:29:06.930Z,12.70
2022-12-31T21:31:34.041Z,12.70
2022-12-31T21:34:01.343Z,13.70
2022-12-31T21:36:28.439Z,12.70
2022-12-31T21:38:55.583Z,12.30
2022-12-31T21:41:41.654Z,12.60
2022-12-31T21:44:08.815Z,12.70
2022-12-31T21:46:36.057Z,12.70
2022-12-31T21:49:03.249Z,12.70
2022-12-31T21:51:30.605Z,12.60
2022-12-31T21:53:58.140Z,13.70
2022-12-31T21:56:25.379Z,12.60
2022-12-31T21:59:12.839Z,12.60
2022-12-31T22:01:58.934Z,12.60
2022-12-31T22:07:13.291Z,13.60
2022-12-31T22:09:40.512Z,12.60
2022-12-31T22:12:07.749Z,12.60
2022-12-31T22:14:34.849Z,12.60
2022-12-31T22:17:01.958Z,12.70
2022-12-31T22:19:29.038Z,12.70
2022-12-31T22:21:56.128Z,12.60
2022-12-31T22:24:23.284Z,12.60
2022-12-31T22:26:51.020Z,12.60
2022-12-31T22:29:19.818Z,12.60
2022-12-31T22:31:47.228Z,12.60
2022-12-31T22:34:14.362Z,12.30
2022-12-31T22:36:41.512Z,12.60
2022-12-31T22:39:13.417Z,12.50
2022-12-31T22:42:00.414Z,12.50
2022-12-31T22:44:27.538Z,12.50
2022-12-31T22:46:56.213Z,12.50
2022-12-31T22:49:23.505Z,12.50
2022-12-31T22:51:57.536Z,12.50
2022-12-31T22:54:25.995Z,12.50
2022-12-31T22:56:53.119Z,12.50
2022-12-31T22:59:20.305Z,12.50
2022-12-31T23:01:47.664Z,12.50
2022-12-31T23:04:15.073Z,12.50
2022-12-31T23:06:45.245Z,12.50
2022-12-31T23:09:31.806Z,12.50
2022-12-31T23:11:59.098Z,12.50
2022-12-31T23:14:44.977Z,12.50
2022-12-31T23:17:37.672Z,12.50
2022-12-31T23:20:24.468Z,12.50
2022-12-31T23:23:10.132Z,12.50
2022-12-31T23:25:50.557Z,12.40
2022-12-31T23:28:19.127Z,12.50
2022-12-31T23:30:46.430Z,12.50
2022-12-31T23:33:15.571Z,12.40
2022-12-31T23:35:42.907Z,12.40
2022-12-31T23:38:10.522Z,12.40
2022-12-31T23:40:37.602Z,13.10
2022-12-31T23:43:06.846Z,12.40
2022-12-31T23:45:34.302Z,12.60
2022-12-31T23:48:01.570Z,12.30
2022-12-31T23:50:28.889Z,12.30
2022-12-31T23:52:56.076Z,12.30
2022-12-31T23:55:23.174Z,12.30
2022-12-31T23:57:50.255Z,12.30
